createdAt,value
2023-04-02T00:00:03.814Z,96869.78
2023-04-02T00:02:46.323Z,96872.47
2023-04-02T00:05:50.173Z,96871.22
2023-04-02T00:08:27.274Z,96874.94
2023-04-02T00:10:56.896Z,96871.66
2023-04-02T00:13:32.935Z,96872.91
2023-04-02T00:16:01.109Z,96872.06
2023-04-02T00:18:29.546Z,96876.44
2023-04-02T00:21:07.532Z,96871.22
2023-04-02T00:23:36.984Z,96876.44
2023-04-02T00:26:07.243Z,96877.06
2023-04-02T00:28:35.996Z,96871.66
2023-04-02T00:31:03.485Z,96868.13
2023-04-02T00:33:32.112Z,96884.97
2023-04-02T00:35:59.621Z,96879.56
2023-04-02T00:38:29.937Z,96876.88
2023-04-02T00:41:01.621Z,96880.00
2023-04-02T00:43:32.491Z,96874.81
2023-04-02T00:46:04.283Z,96880.81
2023-04-02T00:48:42.535Z,96879.59
2023-04-02T00:51:15.875Z,96883.53
2023-04-02T00:53:47.058Z,96879.22
2023-04-02T00:56:19.544Z,96883.59
2023-04-02T00:58:52.378Z,96882.97
2023-04-02T01:01:24.225Z,96891.72
2023-04-02T01:03:58.217Z,96889.00
2023-04-02T01:06:30.637Z,96889.84
2023-04-02T01:09:15.212Z,96898.41
2023-04-02T01:11:56.732Z,96895.28
2023-04-02T01:14:41.142Z,96903.59
2023-04-02T01:17:26.524Z,96901.13
2023-04-02T01:20:23.315Z,96901.72
2023-04-02T01:22:57.912Z,96898.59
2023-04-02T01:25:30.025Z,96902.13
2023-04-02T01:28:06.025Z,96901.69
2023-04-02T01:30:36.560Z,96905.69
2023-04-02T01:33:05.535Z,96914.19
2023-04-02T01:35:39.248Z,96905.63
2023-04-02T01:38:13.892Z,96902.94
2023-04-02T01:40:50.150Z,96906.06
2023-04-02T01:43:25.904Z,96916.88
2023-04-02T01:45:57.185Z,96911.47
2023-04-02T01:48:30.061Z,96915.22
2023-04-02T01:51:00.384Z,96912.91
2023-04-02T01:53:31.149Z,96915.00
2023-04-02T01:56:01.606Z,96913.72
2023-04-02T01:58:31.845Z,96916.25
2023-04-02T02:01:05.999Z,96925.56
2023-04-02T02:03:34.551Z,96926.41
2023-04-02T02:06:06.450Z,96923.28
2023-04-02T02:08:39.173Z,96926.66
2023-04-02T02:11:14.445Z,96931.22
2023-04-02T02:13:46.877Z,96930.16
2023-04-02T02:16:18.122Z,96930.97
2023-04-02T02:18:49.816Z,96931.59
2023-04-02T02:21:29.780Z,96930.97
2023-04-02T02:23:57.554Z,96937.66
2023-04-02T02:26:28.403Z,96933.69
2023-04-02T02:28:57.325Z,96939.09
2023-04-02T02:31:30.989Z,96940.34
2023-04-02T02:34:06.290Z,96943.06
2023-04-02T02:36:42.429Z,96937.66
2023-04-02T02:39:16.833Z,96941.00
2023-04-02T02:41:52.769Z,96941.84
2023-04-02T02:44:25.038Z,96945.38
2023-04-02T02:46:58.785Z,96942.88
2023-04-02T02:49:30.626Z,96952.00
2023-04-02T02:52:06.616Z,96954.72
2023-04-02T02:54:46.291Z,96958.50
2023-04-02T02:57:19.079Z,96955.16
2023-04-02T02:59:48.742Z,96955.78
2023-04-02T03:02:18.346Z,96957.84
2023-04-02T03:04:48.045Z,96973.47
2023-04-02T03:07:19.229Z,96976.56
2023-04-02T03:09:53.453Z,96974.88
2023-04-02T03:12:33.031Z,96977.19
2023-04-02T03:15:05.832Z,96981.75
2023-04-02T03:17:38.902Z,96985.94
2023-04-02T03:20:12.240Z,96991.53
2023-04-02T03:22:45.778Z,96993.81
2023-04-02T03:25:25.136Z,96995.25
2023-04-02T03:28:01.848Z,96996.91
2023-04-02T03:30:36.389Z,96998.38
2023-04-02T03:33:11.682Z,97006.28
2023-04-02T03:35:43.560Z,97005.66
2023-04-02T03:38:16.653Z,96998.78
2023-04-02T03:40:55.576Z,97007.50
2023-04-02T03:43:26.124Z,97003.56
2023-04-02T03:46:00.200Z,96995.66
2023-04-02T03:48:34.465Z,97005.03
2023-04-02T03:51:07.419Z,96998.56
2023-04-02T03:53:35.011Z,97011.88
2023-04-02T03:56:03.780Z,97018.53
2023-04-02T03:58:38.516Z,97021.00
2023-04-02T04:01:14.864Z,97011.47
2023-04-02T04:03:46.955Z,97022.03
2023-04-02T04:06:21.317Z,97029.94
2023-04-02T04:08:54.509Z,97032.25
2023-04-02T04:11:27.443Z,97034.31
2023-04-02T04:13:59.899Z,97034.50
2023-04-02T04:16:33.497Z,97036.81
2023-04-02T04:19:06.638Z,97034.09
2023-04-02T04:21:38.361Z,97048.44
2023-04-02T04:24:20.226Z,97038.03
2023-04-02T04:26:55.082Z,97042.41
2023-04-02T04:29:38.195Z,97048.00
2023-04-02T04:32:19.604Z,97052.78
2023-04-02T04:34:53.737Z,97050.50
2023-04-02T04:37:33.556Z,97063.16
2023-04-02T04:40:12.046Z,97062.75
2023-04-02T04:42:44.449Z,97071.69
2023-04-02T04:45:26.662Z,97076.06
2023-04-02T04:48:00.018Z,97078.56
2023-04-02T04:50:34.433Z,97082.09
2023-04-02T04:53:06.696Z,97088.31
2023-04-02T04:55:38.306Z,97082.69
2023-04-02T04:58:14.554Z,97087.50
2023-04-02T05:00:50.656Z,97085.63
2023-04-02T05:03:28.108Z,97083.97
2023-04-02T05:06:03.605Z,97086.84
2023-04-02T05:08:34.508Z,97095.41
2023-04-02T05:11:09.230Z,97085.19
2023-04-02T05:13:42.520Z,97095.78
2023-04-02T05:16:17.708Z,97099.31
2023-04-02T05:18:51.089Z,97106.41
2023-04-02T05:21:26.374Z,97106.19
2023-04-02T05:23:59.957Z,97105.97
2023-04-02T05:26:32.171Z,97105.56
2023-04-02T05:29:06.374Z,97106.41
2023-04-02T05:31:39.226Z,97110.34
2023-04-02T05:34:07.631Z,97112.03
2023-04-02T05:36:36.736Z,97111.41
2023-04-02T05:39:08.705Z,97121.78
2023-04-02T05:41:47.446Z,97125.97
2023-04-02T05:44:31.356Z,97129.28
2023-04-02T05:47:04.840Z,97131.97
2023-04-02T05:49:41.577Z,97128.03
2023-04-02T05:52:17.391Z,97136.97
2023-04-02T05:54:49.491Z,97141.75
2023-04-02T05:57:24.900Z,97146.97
2023-04-02T05:59:59.994Z,97143.00
2023-04-02T06:02:31.895Z,97148.03
2023-04-02T06:05:04.856Z,97160.28
2023-04-02T06:07:45.131Z,97170.69
2023-04-02T06:10:23.473Z,97172.78
2023-04-02T06:12:55.450Z,97164.22
2023-04-02T06:15:24.234Z,97171.94
2023-04-02T06:18:01.406Z,97179.81
2023-04-02T06:20:29.486Z,97176.31
2023-04-02T06:23:02.507Z,97186.50
2023-04-02T06:25:36.527Z,97184.41
2023-04-02T06:28:14.314Z,97189.19
2023-04-02T06:30:53.280Z,97190.25
2023-04-02T06:33:21.626Z,97187.75
2023-04-02T06:35:51.190Z,97188.78
2023-04-02T06:38:31.337Z,97201.28
2023-04-02T06:41:02.811Z,97205.84
2023-04-02T06:43:49.030Z,97213.75
2023-04-02T06:46:45.505Z,97210.66
2023-04-02T06:49:21.252Z,97213.78
2023-04-02T06:51:54.608Z,97218.75
2023-04-02T06:54:23.639Z,97225.00
2023-04-02T06:56:56.719Z,97230.59
2023-04-02T06:59:28.688Z,97230.41
2023-04-02T07:02:01.036Z,97233.09
2023-04-02T07:04:28.949Z,97235.19
2023-04-02T07:06:56.571Z,97246.44
2023-04-02T07:09:28.639Z,97249.53
2023-04-02T07:11:59.142Z,97253.09
2023-04-02T07:14:27.271Z,97254.78
2023-04-02T07:16:54.984Z,97257.03
2023-04-02T07:19:23.083Z,97256.44
2023-04-02T07:21:55.019Z,97257.25
2023-04-02T07:24:24.348Z,97266.19
2023-04-02T07:26:53.147Z,97264.34
2023-04-02T07:29:20.873Z,97274.13
2023-04-02T07:31:48.463Z,97267.44
2023-04-02T07:34:16.036Z,97277.03
2023-04-02T07:36:43.672Z,97275.56
2023-04-02T07:39:12.169Z,97275.16
2023-04-02T07:41:56.800Z,97282.88
2023-04-02T07:44:26.277Z,97283.47
2023-04-02T07:46:53.937Z,97289.72
2023-04-02T07:49:21.950Z,97290.78
2023-04-02T07:51:49.501Z,97291.63
2023-04-02T07:54:16.969Z,97295.38
2023-04-02T07:56:44.558Z,97299.72
2023-04-02T07:59:13.432Z,97304.13
2023-04-02T08:01:43.134Z,97305.75
2023-04-02T08:04:18.318Z,97316.78
2023-04-02T08:06:47.350Z,97306.56
2023-04-02T08:09:15.494Z,97307.19
2023-04-02T08:11:43.524Z,97313.00
2023-04-02T08:14:12.899Z,97310.88
2023-04-02T08:16:46.076Z,97319.63
2023-04-02T08:19:13.974Z,97326.50
2023-04-02T08:21:41.519Z,97322.53
2023-04-02T08:24:09.040Z,97332.91
2023-04-02T08:26:37.226Z,97327.28
2023-04-02T08:29:04.747Z,97331.47
2023-04-02T08:31:33.506Z,97341.50
2023-04-02T08:34:01.653Z,97347.31
2023-04-02T08:36:33.626Z,97341.06
2023-04-02T08:39:01.866Z,97346.47
2023-04-02T08:41:31.121Z,97347.75
2023-04-02T08:44:10.706Z,97349.81
2023-04-02T08:46:44.975Z,97354.31
2023-04-02T08:49:14.671Z,97355.53
2023-04-02T08:51:42.462Z,97357.63
2023-04-02T08:54:18.632Z,97358.78
2023-04-02T08:56:51.499Z,97366.03
2023-04-02T08:59:29.771Z,97370.63
2023-04-02T09:02:06.554Z,97369.34
2023-04-02T09:04:34.594Z,97377.69
2023-04-02T09:07:03.059Z,97384.13
2023-04-02T09:09:37.178Z,97383.47
2023-04-02T09:12:07.233Z,97385.53
2023-04-02T09:14:42.925Z,97383.25
2023-04-02T09:17:18.082Z,97383.28
2023-04-02T09:19:54.429Z,97391.41
2023-04-02T09:22:24.141Z,97399.94
2023-04-02T09:24:53.017Z,97404.06
2023-04-02T09:27:22.341Z,97414.31
2023-04-02T09:29:53.296Z,97406.59
2023-04-02T09:32:48.719Z,97417.41
2023-04-02T09:35:26.150Z,97418.13
2023-04-02T09:38:22.963Z,97416.72
2023-04-02T09:40:59.066Z,97427.56
2023-04-02T09:43:28.387Z,97431.94
2023-04-02T09:45:58.883Z,97426.44
2023-04-02T09:48:32.694Z,97434.41
2023-04-02T09:51:15.393Z,97444.78
2023-04-02T09:53:45.845Z,97447.25
2023-04-02T09:56:16.895Z,97444.28
2023-04-02T09:58:45.846Z,97451.00
2023-04-02T10:01:28.885Z,97447.47
2023-04-02T10:03:59.625Z,97450.84
2023-04-02T10:06:29.356Z,97457.47
2023-04-02T10:08:57.309Z,97459.19
2023-04-02T10:11:36.435Z,97449.72
2023-04-02T10:14:15.711Z,97460.50
2023-04-02T10:16:48.331Z,97458.88
2023-04-02T10:19:27.707Z,97465.03
2023-04-02T10:21:56.618Z,97463.59
2023-04-02T10:24:28.217Z,97460.53
2023-04-02T10:27:05.150Z,97455.75
2023-04-02T10:30:02.252Z,97461.84
2023-04-02T10:32:37.230Z,97452.88
2023-04-02T10:35:15.715Z,97461.88
2023-04-02T10:38:02.356Z,97463.50
2023-04-02T10:40:36.580Z,97464.03
2023-04-02T10:43:30.817Z,97472.03
2023-04-02T10:46:02.375Z,97473.19
2023-04-02T10:48:39.311Z,97471.56
2023-04-02T10:51:24.942Z,97464.19
2023-04-02T10:54:01.242Z,97481.25
2023-04-02T10:56:40.799Z,97477.09
2023-04-02T10:59:19.572Z,97479.34
2023-04-02T11:01:49.722Z,97485.63
2023-04-02T11:04:22.669Z,97483.50
2023-04-02T11:07:07.219Z,97486.56
2023-04-02T11:09:43.825Z,97492.56
2023-04-02T11:12:19.787Z,97489.94
2023-04-02T11:14:49.387Z,97493.38
2023-04-02T11:17:18.424Z,97492.13
2023-04-02T11:19:50.362Z,97493.69
2023-04-02T11:22:21.558Z,97488.44
2023-04-02T11:24:51.288Z,97490.47
2023-04-02T11:27:24.493Z,97496.50
2023-04-02T11:29:57.499Z,97502.34
2023-04-02T11:32:43.314Z,97500.34
2023-04-02T11:35:34.662Z,97499.69
2023-04-02T11:38:38.364Z,97511.13
2023-04-02T11:41:07.850Z,97516.06
2023-04-02T11:43:59.383Z,97520.59
2023-04-02T11:46:39.055Z,97509.75
2023-04-02T11:49:39.663Z,97518.97
2023-04-02T11:52:26.862Z,97524.41
2023-04-02T11:54:57.458Z,97517.78
2023-04-02T11:57:46.832Z,97524.78
2023-04-02T12:00:33.738Z,97527.50
2023-04-02T12:03:20.417Z,97531.53
2023-04-02T12:05:54.632Z,97529.59
2023-04-02T12:08:29.645Z,97532.06
2023-04-02T12:10:59.510Z,97527.84
2023-04-02T12:13:51.663Z,97535.25
2023-04-02T12:16:21.238Z,97533.72
2023-04-02T12:18:55.009Z,97531.31
2023-04-02T12:21:24.871Z,97538.41
2023-04-02T12:23:55.105Z,97533.72
2023-04-02T12:26:37.865Z,97540.56
2023-04-02T12:29:17.186Z,97545.03
2023-04-02T12:31:47.668Z,97544.47
2023-04-02T12:34:16.856Z,97549.44
2023-04-02T12:36:56.009Z,97553.72
2023-04-02T12:39:25.212Z,97553.91
2023-04-02T12:41:55.840Z,97548.25
2023-04-02T12:44:25.688Z,97551.69
2023-04-02T12:46:54.381Z,97556.91
2023-04-02T12:49:35.339Z,97562.59
2023-04-02T12:52:05.040Z,97562.84
2023-04-02T12:54:36.673Z,97563.50
2023-04-02T12:57:30.820Z,97560.28
2023-04-02T13:00:06.147Z,97562.22
2023-04-02T13:02:45.006Z,97564.88
2023-04-02T13:05:12.552Z,97556.09
2023-04-02T13:07:41.957Z,97564.41
2023-04-02T13:10:25.508Z,97559.16
2023-04-02T13:12:55.447Z,97565.72
2023-04-02T13:15:28.247Z,97570.31
2023-04-02T13:18:05.512Z,97569.53
2023-04-02T13:20:35.072Z,97563.69
2023-04-02T13:23:23.983Z,97566.50
2023-04-02T13:25:52.065Z,97564.97
2023-04-02T13:28:19.849Z,97567.00
2023-04-02T13:30:49.092Z,97569.03
2023-04-02T13:33:17.310Z,97583.53
2023-04-02T13:35:45.413Z,97582.56
2023-04-02T13:38:13.040Z,97597.00
2023-04-02T13:40:40.579Z,97601.09
2023-04-02T13:43:12.123Z,97597.94
2023-04-02T13:45:41.873Z,97609.03
2023-04-02T13:48:14.585Z,97610.59
2023-04-02T13:50:42.627Z,97619.16
2023-04-02T13:53:21.954Z,97620.00
2023-04-02T13:55:49.861Z,97617.28
2023-04-02T13:58:18.925Z,97617.94
2023-04-02T14:00:47.239Z,97627.34
2023-04-02T14:03:19.770Z,97621.13
2023-04-02T14:05:57.064Z,97635.09
2023-04-02T14:08:33.172Z,97644.53
2023-04-02T14:11:11.195Z,97644.94
2023-04-02T14:14:01.009Z,97650.56
2023-04-02T14:16:46.414Z,97652.44
2023-04-02T14:19:27.715Z,97654.31
2023-04-02T14:22:08.627Z,97665.16
2023-04-02T14:24:44.952Z,97661.00
2023-04-02T14:27:24.370Z,97665.13
2023-04-02T14:30:01.140Z,97660.56
2023-04-02T14:32:35.899Z,97668.06
2023-04-02T14:35:12.521Z,97676.00
2023-04-02T14:37:45.746Z,97667.41
2023-04-02T14:40:21.858Z,97665.75
2023-04-02T14:42:56.078Z,97677.19
2023-04-02T14:45:38.053Z,97677.66
2023-04-02T14:48:16.154Z,97682.22
2023-04-02T14:50:43.929Z,97680.53
2023-04-02T14:53:19.588Z,97680.97
2023-04-02T14:55:49.713Z,97683.69
2023-04-02T14:58:22.139Z,97689.75
2023-04-02T15:00:58.398Z,97698.66
2023-04-02T15:03:32.928Z,97698.72
2023-04-02T15:06:06.131Z,97697.47
2023-04-02T15:08:39.152Z,97697.63
2023-04-02T15:11:12.128Z,97695.53
2023-04-02T15:13:44.228Z,97706.38
2023-04-02T15:16:19.132Z,97704.69
2023-04-02T15:18:50.512Z,97701.06
2023-04-02T15:21:55.869Z,97711.28
2023-04-02T15:24:35.574Z,97713.41
2023-04-02T15:27:24.958Z,97712.59
2023-04-02T15:29:57.853Z,97715.06
2023-04-02T15:32:36.107Z,97714.88
2023-04-02T15:35:15.910Z,97714.66
2023-04-02T15:37:49.747Z,97718.66
2023-04-02T15:40:43.498Z,97720.06
2023-04-02T15:43:19.803Z,97726.81
2023-04-02T15:46:01.091Z,97729.66
2023-04-02T15:48:42.360Z,97740.91
2023-04-02T15:51:25.888Z,97740.13
2023-04-02T15:54:03.499Z,97745.31
2023-04-02T15:56:40.310Z,97750.28
2023-04-02T15:59:26.925Z,97755.72
2023-04-02T16:01:59.452Z,97763.16
2023-04-02T16:04:44.823Z,97767.50
2023-04-02T16:07:40.196Z,97776.56
2023-04-02T16:10:18.023Z,97775.69
2023-04-02T16:12:50.750Z,97788.19
2023-04-02T16:15:27.091Z,97790.63
2023-04-02T16:17:59.258Z,97799.31
2023-04-02T16:20:31.869Z,97802.72
2023-04-02T16:23:02.558Z,97798.47
2023-04-02T16:25:38.976Z,97812.69
2023-04-02T16:28:19.203Z,97811.59
2023-04-02T16:30:55.750Z,97814.94
2023-04-02T16:33:36.445Z,97824.97
2023-04-02T16:36:19.798Z,97828.88
2023-04-02T16:38:55.598Z,97840.16
2023-04-02T16:41:30.084Z,97835.50
2023-04-02T16:44:07.696Z,97834.84
2023-04-02T16:46:41.056Z,97845.75
2023-04-02T16:49:23.436Z,97845.00
2023-04-02T16:52:02.373Z,97844.09
2023-04-02T16:54:35.530Z,97850.25
2023-04-02T16:57:19.079Z,97854.16
2023-04-02T16:59:56.654Z,97854.28
2023-04-02T17:02:37.682Z,97862.84
2023-04-02T17:05:17.385Z,97869.09
2023-04-02T17:07:50.590Z,97873.16
2023-04-02T17:10:26.870Z,97878.19
2023-04-02T17:13:02.243Z,97878.28
2023-04-02T17:15:34.700Z,97884.34
2023-04-02T17:18:09.799Z,97878.47
2023-04-02T17:20:38.271Z,97888.63
2023-04-02T17:23:11.878Z,97895.41
2023-04-02T17:25:46.603Z,97901.00
2023-04-02T17:28:18.375Z,97904.19
2023-04-02T17:30:49.274Z,97914.16
2023-04-02T17:33:18.629Z,97910.13
2023-04-02T17:35:56.009Z,97916.72
2023-04-02T17:38:33.135Z,97920.88
2023-04-02T17:41:08.590Z,97930.88
2023-04-02T17:43:46.122Z,97935.97
2023-04-02T17:46:24.846Z,97939.81
2023-04-02T17:49:00.322Z,97940.00
2023-04-02T17:51:38.842Z,97955.06
2023-04-02T17:54:22.037Z,97956.91
2023-04-02T17:57:06.538Z,97961.31
2023-04-02T17:59:55.382Z,97964.19
2023-04-02T18:02:38.945Z,97971.44
2023-04-02T18:05:15.895Z,97977.53
2023-04-02T18:07:54.648Z,97986.47
2023-04-02T18:10:29.654Z,97992.41
2023-04-02T18:13:06.864Z,98000.06
2023-04-02T18:15:55.406Z,98003.81
2023-04-02T18:18:49.487Z,98008.28
2023-04-02T18:21:24.933Z,98011.50
2023-04-02T18:24:10.217Z,98017.59
2023-04-02T18:26:48.452Z,98025.03
2023-04-02T18:29:27.877Z,98028.09
2023-04-02T18:32:10.742Z,98032.81
2023-04-02T18:34:55.498Z,98036.88
2023-04-02T18:37:33.079Z,98055.91
2023-04-02T18:40:16.064Z,98051.19
2023-04-02T18:42:58.891Z,98066.34
2023-04-02T18:45:35.875Z,98065.88
2023-04-02T18:48:16.030Z,98075.31
2023-04-02T18:50:46.754Z,98084.38
2023-04-02T18:53:17.069Z,98079.66
2023-04-02T18:55:48.682Z,98101.41
2023-04-02T18:58:25.358Z,98097.88
2023-04-02T19:00:53.921Z,98105.63
2023-04-02T19:03:25.151Z,98114.69
2023-04-02T19:05:58.647Z,98110.81
2023-04-02T19:08:31.382Z,98117.88
2023-04-02T19:11:01.710Z,98127.13
2023-04-02T19:13:30.678Z,98129.31
2023-04-02T19:16:15.829Z,98135.19
2023-04-02T19:18:54.042Z,98141.53
2023-04-02T19:21:33.583Z,98143.38
2023-04-02T19:24:12.991Z,98147.28
2023-04-02T19:26:49.335Z,98150.13
2023-04-02T19:29:29.190Z,98154.50
2023-04-02T19:32:03.858Z,98165.41
2023-04-02T19:34:39.750Z,98173.63
2023-04-02T19:37:15.514Z,98179.50
2023-04-02T19:40:04.992Z,98177.16
2023-04-02T19:42:48.176Z,98182.69
2023-04-02T19:45:28.557Z,98183.97
2023-04-02T19:47:58.606Z,98189.50
2023-04-02T19:50:28.683Z,98196.91
2023-04-02T19:52:56.261Z,98192.13
2023-04-02T19:55:23.719Z,98198.19
2023-04-02T19:57:52.797Z,98199.69
2023-04-02T20:00:23.819Z,98206.03
2023-04-02T20:02:51.590Z,98206.75
2023-04-02T20:05:19.157Z,98210.75
2023-04-02T20:07:46.627Z,98205.53
2023-04-02T20:10:14.185Z,98221.81
2023-04-02T20:12:41.818Z,98229.56
2023-04-02T20:15:10.954Z,98228.03
2023-04-02T20:17:40.459Z,98223.44
2023-04-02T20:20:10.550Z,98238.78
2023-04-02T20:22:38.014Z,98239.31
2023-04-02T20:25:06.309Z,98233.88
2023-04-02T20:27:33.708Z,98242.94
2023-04-02T20:30:01.208Z,98243.94
2023-04-02T20:32:28.769Z,98242.25
2023-04-02T20:34:58.042Z,98237.91
2023-04-02T20:37:25.650Z,98257.72
2023-04-02T20:39:54.557Z,98258.72
2023-04-02T20:42:22.354Z,98256.16
2023-04-02T20:44:49.790Z,98257.16
2023-04-02T20:47:18.084Z,98269.78
2023-04-02T20:49:45.828Z,98256.13
2023-04-02T20:52:14.585Z,98265.03
2023-04-02T20:54:41.929Z,98270.22
2023-04-02T20:57:09.490Z,98263.34
2023-04-02T20:59:36.901Z,98262.97
2023-04-02T21:02:04.280Z,98274.09
2023-04-02T21:04:31.863Z,98275.41
2023-04-02T21:06:59.379Z,98279.09
2023-04-02T21:09:28.262Z,98285.84
2023-04-02T21:11:55.639Z,98287.81
2023-04-02T21:14:22.954Z,98286.69
2023-04-02T21:19:18.064Z,98298.31
2023-04-02T21:21:45.543Z,98298.31
2023-04-02T21:24:13.280Z,98309.25
2023-04-02T21:26:42.158Z,98307.41
2023-04-02T21:29:11.394Z,98315.06
2023-04-02T21:31:40.771Z,98313.03
2023-04-02T21:34:09.771Z,98316.72
2023-04-02T21:36:39.314Z,98310.41
2023-04-02T21:39:07.128Z,98316.47
2023-04-02T21:41:36.860Z,98320.47
2023-04-02T21:44:07.161Z,98323.53
2023-04-02T21:46:36.739Z,98320.84
2023-04-02T21:49:06.001Z,98322.84
2023-04-02T21:51:35.660Z,98323.06
2023-04-02T21:54:04.086Z,98318.78
2023-04-02T21:56:32.897Z,98333.69
2023-04-02T21:59:02.093Z,98328.16
2023-04-02T22:01:32.767Z,98333.34
2023-04-02T22:04:02.019Z,98326.69
2023-04-02T22:06:31.583Z,98337.97
2023-04-02T22:09:01.281Z,98335.22
2023-04-02T22:11:31.653Z,98333.53
2023-04-02T22:13:59.677Z,98326.16
2023-04-02T22:16:30.243Z,98334.75
2023-04-02T22:19:01.811Z,98338.44
2023-04-02T22:21:30.667Z,98336.88
2023-04-02T22:24:01.353Z,98337.34
2023-04-02T22:26:30.245Z,98332.13
2023-04-02T22:28:57.968Z,98343.56
2023-04-02T22:31:26.793Z,98335.13
2023-04-02T22:33:56.543Z,98341.88
2023-04-02T22:36:26.506Z,98352.47
2023-04-02T22:38:54.478Z,98344.50
2023-04-02T22:41:25.573Z,98355.78
2023-04-02T22:43:54.433Z,98353.94
2023-04-02T22:46:22.600Z,98355.38
2023-04-02T22:48:50.665Z,98357.69
2023-04-02T22:51:19.958Z,98356.38
2023-04-02T22:53:49.149Z,98361.47
2023-04-02T22:56:18.799Z,98359.78
2023-04-02T22:58:46.448Z,98362.91
2023-04-02T23:01:16.525Z,98358.53
2023-04-02T23:03:44.328Z,98357.53
2023-04-02T23:06:14.401Z,98358.41
2023-04-02T23:08:42.093Z,98356.38
2023-04-02T23:11:12.388Z,98354.28
2023-04-02T23:13:41.841Z,98356.31
2023-04-02T23:16:12.542Z,98353.06
2023-04-02T23:18:41.517Z,98354.81
2023-04-02T23:21:09.851Z,98354.97
2023-04-02T23:23:37.977Z,98363.03
2023-04-02T23:26:08.105Z,98357.66
2023-04-02T23:28:38.199Z,98364.00
2023-04-02T23:31:07.884Z,98360.19
2023-04-02T23:33:35.783Z,98360.19
2023-04-02T23:36:07.262Z,98353.84
2023-04-02T23:38:34.828Z,98358.03
2023-04-02T23:41:02.314Z,98352.00
2023-04-02T23:43:29.931Z,98354.69
2023-04-02T23:45:58.935Z,98360.72
2023-04-02T23:48:26.412Z,98353.53
2023-04-02T23:50:53.886Z,98359.28
2023-04-02T23:53:21.338Z,98359.06
2023-04-02T23:55:48.889Z,98354.97
2023-04-02T23:58:16.340Z,98360.34
